Terminal Aerodrome Forecast
Issued by NWS

Home | Current Version | Previous Version | Text Only | Print | Product List | Glossary On
Versions: 1 2 3 4 5 6 7 8 9 10 11 12 13 14 15
000
FTUS42 KMLB 301720
TAFISM
TAF
KISM 301720Z 3018/3118 10010KT P6SM VCSH SCT035 SCT060
      TEMPO 3018/3022 5SM SHRA BKN035 BKN050
     FM310100 09006KT P6SM SCT035 SCT060 BKN250
     FM310600 10003KT P6SM SCT030
     FM311400 12006KT P6SM VCSH FEW015 SCT025 BKN080=

USA.gov is the U.S. government's official web portal to all federal, state and local government web resources and services.